Time,TemperatureF,DewpointF,PressureIn,WindDirection,WindDirectionDegrees,WindSpeedMPH,WindSpeedGustMPH,Humidity,HourlyPrecipIn,Conditions,Clouds,dailyrainin,SoftwareType,DateUTC
2013-09-01 00:00:00,81.7,76.4,29.90,South,180,0.0,0.0,84,0.00,,---,0.00,VWS V14.01,2013-09-01 04:00:00,
2013-09-01 00:30:00,81.7,76.4,29.90,South,180,0.0,0.0,84,0.00,,---,0.00,VWS V14.01,2013-09-01 04:30:00,
2013-09-01 01:00:00,81.7,76.4,29.89,South,180,0.0,0.0,84,0.00,,---,0.00,VWS V14.01,2013-09-01 05:00:00,
2013-09-01 01:30:00,81.7,76.4,29.89,South,180,0.0,0.0,84,0.00,,---,0.00,VWS V14.01,2013-09-01 05:30:00,
2013-09-01 02:00:00,81.7,76.4,29.90,South,180,0.0,0.0,84,0.00,,---,0.00,VWS V14.01,2013-09-01 06:00:00,
2013-09-01 02:30:00,81.7,76.4,29.89,South,180,0.0,0.0,84,0.00,,---,0.00,VWS V14.01,2013-09-01 06:30:00,
2013-09-01 03:00:00,81.7,76.4,29.89,South,180,0.0,0.0,84,0.00,,---,0.00,VWS V14.01,2013-09-01 07:00:00,
2013-09-01 03:30:00,81.7,76.4,29.88,South,180,0.0,0.0,84,0.00,,---,0.00,VWS V14.01,2013-09-01 07:30:00,
2013-09-01 04:00:00,81.7,76.4,29.88,South,180,0.0,0.0,84,0.00,,---,0.00,VWS V14.01,2013-09-01 08:00:00,
2013-09-01 04:30:00,81.7,76.4,29.87,South,180,0.0,0.0,84,0.00,,---,0.00,VWS V14.01,2013-09-01 08:30:00,
2013-09-01 05:00:00,81.7,76.4,29.87,South,180,0.0,0.0,84,0.00,,---,0.00,VWS V14.01,2013-09-01 09:00:00,
2013-09-01 05:30:00,81.7,76.4,29.87,South,180,0.0,0.0,84,0.00,,---,0.00,VWS V14.01,2013-09-01 09:30:00,
2013-09-01 06:00:00,81.7,76.4,29.89,South,180,0.0,0.0,84,0.00,,---,0.00,VWS V14.01,2013-09-01 10:00:00,
2013-09-01 06:30:00,81.7,76.4,29.89,South,180,0.0,0.0,84,0.00,,---,0.00,VWS V14.01,2013-09-01 10:30:00,
2013-09-01 07:00:00,81.7,76.4,29.90,South,180,0.0,0.0,84,0.00,,---,0.00,VWS V14.01,2013-09-01 11:00:00,
2013-09-01 07:30:00,81.7,76.4,29.89,South,180,0.0,0.0,84,0.00,,---,0.00,VWS V14.01,2013-09-01 11:30:00,
2013-09-01 08:00:00,81.7,76.4,29.90,South,180,0.0,0.0,84,0.00,,---,0.00,VWS V14.01,2013-09-01 12:00:00,
2013-09-01 08:30:00,81.7,76.4,29.91,South,180,0.0,0.0,84,0.00,,---,0.00,VWS V14.01,2013-09-01 12:30:00,
2013-09-01 09:00:00,81.7,76.4,29.92,South,180,0.0,0.0,84,0.00,,---,0.00,VWS V14.01,2013-09-01 13:00:00,
2013-09-01 09:30:00,81.7,76.4,29.93,South,180,0.0,0.0,84,0.00,,---,0.00,VWS V14.01,2013-09-01 13:30:00,
2013-09-01 10:00:00,84.0,79.0,29.93,West,270,1.0,13.0,85,0.00,,---,0.00,VWS V14.01,2013-09-01 14:00:00,
2013-09-01 10:30:00,85.1,79.0,29.93,WNW,292,2.0,8.0,82,0.00,,---,0.00,VWS V14.01,2013-09-01 14:30:00,
2013-09-01 11:00:00,84.0,79.0,29.93,West,270,1.0,13.0,85,0.00,,---,0.00,VWS V14.01,2013-09-01 15:00:00,
2013-09-01 11:30:00,87.8,78.1,29.92,NW,305,0.0,5.0,73,0.00,,---,0.00,VWS V14.01,2013-09-01 15:30:00,
2013-09-01 12:00:00,89.2,78.6,29.91,WNW,301,2.0,6.0,71,0.00,,---,0.00,VWS V14.01,2013-09-01 16:00:00,
2013-09-01 12:30:00,90.7,76.8,29.90,West,263,0.0,6.0,64,0.00,,---,0.00,VWS V14.01,2013-09-01 16:30:00,
2013-09-01 13:00:00,89.8,81.6,29.90,ESE,115,1.0,9.0,77,0.00,,---,0.00,VWS V14.01,2013-09-01 17:00:00,
2013-09-01 13:30:00,89.2,81.8,29.90,SE,141,3.0,6.0,79,0.00,,---,0.00,VWS V14.01,2013-09-01 17:30:00,
2013-09-01 14:00:00,88.9,81.2,29.89,East,83,3.0,7.0,78,0.00,,---,0.00,VWS V14.01,2013-09-01 18:00:00,
2013-09-01 14:30:00,88.9,81.2,29.87,ESE,103,3.0,9.0,78,0.00,,---,0.00,VWS V14.01,2013-09-01 18:30:00,
2013-09-01 15:00:00,85.5,80.1,29.86,SE,138,3.0,11.0,84,0.00,,---,0.00,VWS V14.01,2013-09-01 19:00:00,
2013-09-01 15:30:00,87.3,80.4,29.85,East,86,1.0,9.0,80,0.00,,---,0.00,VWS V14.01,2013-09-01 19:30:00,
2013-09-01 16:00:00,87.0,79.7,29.84,NNW,342,0.0,9.0,79,0.00,,---,0.00,VWS V14.01,2013-09-01 20:00:00,
2013-09-01 16:30:00,86.6,79.7,29.84,WNW,286,3.0,10.0,80,0.00,,---,0.00,VWS V14.01,2013-09-01 20:30:00,
2013-09-01 17:00:00,85.4,79.3,29.83,SE,145,6.0,10.0,82,0.00,,---,0.00,VWS V14.01,2013-09-01 21:00:00,
2013-09-01 17:30:00,84.8,79.4,29.83,West,270,2.0,11.0,84,0.00,,---,0.00,VWS V14.01,2013-09-01 21:30:00,
2013-09-01 18:00:00,84.0,79.0,29.83,West,270,2.0,10.0,85,0.00,,---,0.00,VWS V14.01,2013-09-01 22:00:00,
2013-09-01 18:30:00,83.9,78.6,29.83,SW,225,1.0,6.0,84,0.00,,---,0.00,VWS V14.01,2013-09-01 22:30:00,
2013-09-01 19:00:00,83.9,78.9,29.83,WSW,248,1.0,11.0,85,0.00,,---,0.00,VWS V14.01,2013-09-01 23:00:00,
2013-09-01 19:30:00,83.2,78.2,29.84,WSW,248,1.0,9.0,85,0.00,,---,0.00,VWS V14.01,2013-09-01 23:30:00,
2013-09-01 20:00:00,81.9,74.0,29.84,WSW,248,0.0,0.0,77,0.00,,---,0.00,VWS V14.01,2013-09-02 00:00:00,
2013-09-01 20:30:00,81.4,73.9,29.85,WSW,248,0.0,0.0,78,0.00,,---,0.00,VWS V14.01,2013-09-02 00:30:00,
2013-09-01 21:00:00,81.1,74.3,29.86,WSW,248,0.0,0.0,80,0.00,,---,0.00,VWS V14.01,2013-09-02 01:00:00,
2013-09-01 21:30:00,81.4,73.9,29.85,WSW,248,0.0,0.0,78,0.00,,---,0.00,VWS V14.01,2013-09-02 01:30:00,
2013-09-01 21:37:00,80.7,74.3,29.87,SW,236,0.0,0.0,81,0.00,,---,0.00,VWS V14.01,2013-09-02 01:37:00,
2013-09-01 21:38:00,80.7,74.3,29.87,SW,225,0.0,0.0,81,0.00,,---,0.00,VWS V14.01,2013-09-02 01:38:00,
2013-09-01 21:43:00,80.7,74.3,29.88,SW,223,0.0,0.0,81,0.00,,---,0.00,VWS V14.01,2013-09-02 01:43:00,
2013-09-01 21:48:00,80.7,74.3,29.88,SW,215,0.0,0.0,81,0.00,,---,0.00,VWS V14.01,2013-09-02 01:48:00,
2013-09-01 21:53:00,80.7,74.3,29.88,SW,230,0.0,0.0,81,0.00,,---,0.00,VWS V14.01,2013-09-02 01:53:00,
2013-09-01 21:58:00,80.7,74.3,29.88,SW,232,0.0,0.0,81,0.00,,---,0.00,VWS V14.01,2013-09-02 01:58:00,
2013-09-01 22:00:00,80.7,74.3,29.88,WSW,248,0.0,0.0,81,0.00,,---,0.00,VWS V14.01,2013-09-02 02:00:00,
2013-09-01 22:03:00,80.6,74.2,29.88,WSW,253,0.0,0.0,81,0.00,,---,0.00,VWS V14.01,2013-09-02 02:03:00,
2013-09-01 22:08:00,80.6,74.2,29.88,SW,230,0.0,0.0,81,0.00,,---,0.00,VWS V14.01,2013-09-02 02:08:00,
2013-09-01 22:13:00,80.5,74.1,29.89,WSW,250,0.0,0.0,81,0.00,,---,0.00,VWS V14.01,2013-09-02 02:13:00,
2013-09-01 22:18:00,80.5,74.1,29.89,SSW,209,0.0,0.0,81,0.00,,---,0.00,VWS V14.01,2013-09-02 02:18:00,
2013-09-01 22:23:00,80.5,74.5,29.88,SW,225,0.0,0.0,82,0.00,,---,0.00,VWS V14.01,2013-09-02 02:23:00,
2013-09-01 22:28:00,80.5,74.5,29.88,SSW,207,0.0,0.0,82,0.00,,---,0.00,VWS V14.01,2013-09-02 02:28:00,
2013-09-01 22:30:00,80.4,74.4,29.88,SW,226,0.0,0.0,82,0.00,,---,0.00,VWS V14.01,2013-09-02 02:30:00,
2013-09-01 22:33:00,80.4,74.4,29.88,WSW,251,0.0,0.0,82,0.00,,---,0.00,VWS V14.01,2013-09-02 02:33:00,
2013-09-01 22:38:00,80.3,74.3,29.88,WSW,238,0.0,0.0,82,0.00,,---,0.00,VWS V14.01,2013-09-02 02:38:00,
2013-09-01 22:43:00,80.3,74.3,29.88,WSW,242,0.0,0.0,82,0.00,,---,0.00,VWS V14.01,2013-09-02 02:43:00,
2013-09-01 22:48:00,80.3,74.3,29.89,WSW,252,0.0,0.0,82,0.00,,---,0.00,VWS V14.01,2013-09-02 02:48:00,
2013-09-01 22:53:00,80.2,74.2,29.89,WSW,240,0.0,0.0,82,0.00,,---,0.00,VWS V14.01,2013-09-02 02:53:00,
2013-09-01 22:58:00,80.2,74.2,29.89,WSW,240,0.0,0.0,82,0.00,,---,0.00,VWS V14.01,2013-09-02 02:58:00,
2013-09-01 23:00:00,80.2,74.2,29.89,WSW,238,0.0,0.0,82,0.00,,---,0.00,VWS V14.01,2013-09-02 03:00:00,
2013-09-01 23:03:00,80.2,74.2,29.89,SW,224,0.0,0.0,82,0.00,,---,0.00,VWS V14.01,2013-09-02 03:03:00,
2013-09-01 23:08:00,80.1,74.1,29.89,SW,234,0.0,0.0,82,0.00,,---,0.00,VWS V14.01,2013-09-02 03:08:00,
2013-09-01 23:13:00,80.1,74.1,29.90,WSW,246,0.0,0.0,82,0.00,,---,0.00,VWS V14.01,2013-09-02 03:13:00,
2013-09-01 23:22:00,80.0,74.0,29.89,WSW,247,0.0,0.0,82,0.00,,---,0.00,VWS V14.01,2013-09-02 03:22:00,
2013-09-01 23:27:00,80.0,74.0,29.89,WSW,242,0.0,0.0,82,0.00,,---,0.00,VWS V14.01,2013-09-02 03:27:00,
2013-09-01 23:30:00,80.0,74.0,29.89,SW,226,0.0,0.0,82,0.00,,---,0.00,VWS V14.01,2013-09-02 03:30:00,
2013-09-01 23:32:00,80.0,74.0,29.89,SW,235,0.0,0.0,82,0.00,,---,0.00,VWS V14.01,2013-09-02 03:32:00,
2013-09-01 23:37:00,80.0,74.0,29.89,SW,220,0.0,0.0,82,0.00,,---,0.00,VWS V14.01,2013-09-02 03:37:00,
2013-09-01 23:42:00,80.0,74.0,29.89,WSW,249,0.0,0.0,82,0.00,,---,0.00,VWS V14.01,2013-09-02 03:42:00,
2013-09-01 23:47:00,79.9,73.9,29.89,SW,219,0.0,0.0,82,0.00,,---,0.00,VWS V14.01,2013-09-02 03:47:00,
2013-09-01 23:52:00,79.8,73.8,29.89,SW,217,0.0,0.0,82,0.00,,---,0.00,VWS V14.01,2013-09-02 03:52:00,
2013-09-01 23:57:00,79.9,73.9,29.89,WSW,254,0.0,0.0,82,0.00,,---,0.00,VWS V14.01,2013-09-02 03:57:00,